createdAt,value
2018-08-07T00:00:25.485Z,24.33
2018-08-07T00:02:54.665Z,24.39
2018-08-07T00:05:23.833Z,24.37
2018-08-07T00:07:54.984Z,24.68
2018-08-07T00:10:26.222Z,24.62
2018-08-07T00:12:55.429Z,24.85
2018-08-07T00:15:26.197Z,25.09
2018-08-07T00:17:55.373Z,24.96
2018-08-07T00:20:24.563Z,25.33
2018-08-07T00:22:53.670Z,25.28
2018-08-07T00:25:22.856Z,25.36
2018-08-07T00:27:51.995Z,25.56
2018-08-07T00:30:21.125Z,25.24
2018-08-07T00:32:50.254Z,25.07
2018-08-07T00:35:20.157Z,26.42
2018-08-07T00:37:49.343Z,25.24
2018-08-07T00:40:19.215Z,24.89
2018-08-07T00:42:48.748Z,24.67
2018-08-07T00:45:20.112Z,24.77
2018-08-07T00:47:49.539Z,24.43
2018-08-07T00:50:20.052Z,24.35
2018-08-07T00:52:49.914Z,24.38
2018-08-07T00:55:19.714Z,24.75
2018-08-07T00:57:49.476Z,24.35
2018-08-07T01:00:18.665Z,24.37
2018-08-07T01:02:47.805Z,24.24
2018-08-07T01:05:17.873Z,24.50
2018-08-07T01:07:47.146Z,24.48
2018-08-07T01:10:17.378Z,24.01
2018-08-07T01:12:49.573Z,23.68
2018-08-07T01:15:20.233Z,23.90
2018-08-07T01:17:49.540Z,23.90
2018-08-07T01:20:22.122Z,23.71
2018-08-07T01:22:51.387Z,23.94
2018-08-07T01:25:22.768Z,23.63
2018-08-07T01:27:51.920Z,24.06
2018-08-07T01:30:23.837Z,23.91
2018-08-07T01:32:53.297Z,23.99
2018-08-07T01:35:22.625Z,24.31
2018-08-07T01:37:51.771Z,24.21
2018-08-07T01:40:20.920Z,24.01
2018-08-07T01:42:50.050Z,24.29
2018-08-07T01:45:19.229Z,24.00
2018-08-07T01:47:48.405Z,24.16
2018-08-07T01:50:17.574Z,23.56
2018-08-07T01:52:46.833Z,23.45
2018-08-07T01:55:23.375Z,23.43
2018-08-07T01:57:52.600Z,23.25
2018-08-07T02:00:21.770Z,22.80
2018-08-07T02:02:51.238Z,23.15
2018-08-07T02:05:20.420Z,22.91
2018-08-07T02:07:49.593Z,22.74
2018-08-07T02:10:19.494Z,22.87
2018-08-07T02:12:48.642Z,22.87
2018-08-07T02:15:17.882Z,22.92
2018-08-07T02:17:47.051Z,22.80
2018-08-07T02:20:17.042Z,22.59
2018-08-07T02:22:46.748Z,22.58
2018-08-07T02:25:17.984Z,22.55
2018-08-07T02:27:47.485Z,22.65
2018-08-07T02:30:17.198Z,22.44
2018-08-07T02:32:46.328Z,22.62
2018-08-07T02:35:17.094Z,22.56
2018-08-07T02:37:47.095Z,22.61
2018-08-07T02:40:16.759Z,22.69
2018-08-07T02:42:46.023Z,22.20
2018-08-07T02:45:16.778Z,22.14
2018-08-07T02:47:46.401Z,22.47
2018-08-07T02:50:17.519Z,22.24
2018-08-07T02:52:46.743Z,21.90
2018-08-07T02:55:15.973Z,22.26
2018-08-07T02:57:45.692Z,21.97
2018-08-07T03:00:19.092Z,22.17
2018-08-07T03:02:48.445Z,22.36
2018-08-07T03:05:18.366Z,21.98
2018-08-07T03:07:47.646Z,21.98
2018-08-07T03:10:16.861Z,22.16
2018-08-07T03:12:45.991Z,22.19
2018-08-07T03:15:17.962Z,22.04
2018-08-07T03:17:47.793Z,22.62
2018-08-07T03:20:17.414Z,22.22
2018-08-07T03:22:46.673Z,21.74
2018-08-07T03:25:15.955Z,21.66
2018-08-07T03:27:45.760Z,21.61
2018-08-07T03:30:16.702Z,21.77
2018-08-07T03:32:46.361Z,21.75
2018-08-07T03:35:15.601Z,21.75
2018-08-07T03:37:44.791Z,22.04
2018-08-07T03:40:16.775Z,22.04
2018-08-07T03:42:46.081Z,22.24
2018-08-07T03:45:16.346Z,21.91
2018-08-07T03:47:46.241Z,22.27
2018-08-07T03:50:15.507Z,21.87
2018-08-07T03:52:44.722Z,21.78
2018-08-07T03:55:15.801Z,22.22
2018-08-07T03:57:45.498Z,22.31
2018-08-07T04:00:18.513Z,22.16
2018-08-07T04:02:47.757Z,21.88
2018-08-07T04:05:16.997Z,21.79
2018-08-07T04:07:46.318Z,21.98
2018-08-07T04:10:16.905Z,21.98
2018-08-07T04:12:46.078Z,22.07
2018-08-07T04:15:17.337Z,21.96
2018-08-07T04:17:46.581Z,21.98
2018-08-07T04:20:17.329Z,21.94
2018-08-07T04:22:46.578Z,21.94
2018-08-07T04:25:15.774Z,22.25
2018-08-07T04:27:45.006Z,21.95
2018-08-07T04:30:16.166Z,21.91
2018-08-07T04:32:45.633Z,21.83
2018-08-07T04:35:15.486Z,21.72
2018-08-07T04:37:45.174Z,21.73
2018-08-07T04:40:14.382Z,22.40
2018-08-07T04:42:43.608Z,21.91
2018-08-07T04:45:14.020Z,21.58
2018-08-07T04:47:43.858Z,21.77
2018-08-07T04:50:13.131Z,21.93
2018-08-07T04:52:42.468Z,22.21
2018-08-07T04:55:11.915Z,21.83
2018-08-07T04:57:41.095Z,22.22
2018-08-07T05:00:14.369Z,22.62
2018-08-07T05:02:44.336Z,22.25
2018-08-07T05:05:13.593Z,22.39
2018-08-07T05:07:42.810Z,22.03
2018-08-07T05:10:14.063Z,21.72
2018-08-07T05:12:44.110Z,21.88
2018-08-07T05:15:13.681Z,22.11
2018-08-07T05:17:44.079Z,21.71
2018-08-07T05:20:13.357Z,21.97
2018-08-07T05:22:42.552Z,22.10
2018-08-07T05:25:12.381Z,21.87
2018-08-07T05:27:41.551Z,22.09
2018-08-07T05:30:12.481Z,21.93
2018-08-07T05:32:41.754Z,21.96
2018-08-07T05:35:11.656Z,22.55
2018-08-07T05:37:40.923Z,22.20
2018-08-07T05:40:11.074Z,22.20
2018-08-07T05:42:40.896Z,22.25
2018-08-07T05:45:11.871Z,22.25
2018-08-07T05:47:41.000Z,22.33
2018-08-07T05:50:12.395Z,22.26
2018-08-07T05:52:41.462Z,22.41
2018-08-07T05:55:11.359Z,22.37
2018-08-07T05:57:40.668Z,22.61
2018-08-07T06:00:15.507Z,22.66
2018-08-07T06:02:45.699Z,22.66
2018-08-07T06:05:14.901Z,22.77
2018-08-07T06:07:44.220Z,22.94
2018-08-07T06:10:14.103Z,22.83
2018-08-07T06:12:43.456Z,22.75
2018-08-07T06:15:14.621Z,22.72
2018-08-07T06:17:44.728Z,22.92
2018-08-07T06:20:13.987Z,22.83
2018-08-07T06:22:43.235Z,23.11
2018-08-07T06:25:12.619Z,23.23
2018-08-07T06:27:41.881Z,23.15
2018-08-07T06:30:16.125Z,23.38
2018-08-07T06:32:45.673Z,23.28
2018-08-07T06:35:14.906Z,23.31
2018-08-07T06:37:44.128Z,23.43
2018-08-07T06:40:13.811Z,23.65
2018-08-07T06:42:43.072Z,23.69
2018-08-07T06:45:13.757Z,23.85
2018-08-07T06:47:43.301Z,23.81
2018-08-07T06:50:16.527Z,24.07
2018-08-07T06:52:46.453Z,24.07
2018-08-07T06:55:15.663Z,24.34
2018-08-07T06:57:45.000Z,24.41
2018-08-07T07:00:16.797Z,24.62
2018-08-07T07:02:46.069Z,24.78
2018-08-07T07:05:15.289Z,24.87
2018-08-07T07:07:44.502Z,24.91
2018-08-07T07:10:14.085Z,25.00
2018-08-07T07:12:44.520Z,25.29
2018-08-07T07:15:14.741Z,25.45
2018-08-07T07:17:45.286Z,25.69
2018-08-07T07:20:15.675Z,25.73
2018-08-07T07:22:46.095Z,26.05
2018-08-07T07:25:15.401Z,26.24
2018-08-07T07:27:44.700Z,26.39
2018-08-07T07:30:22.721Z,26.46
2018-08-07T07:32:54.016Z,26.91
2018-08-07T07:35:23.200Z,26.85
2018-08-07T07:37:52.417Z,27.31
2018-08-07T07:40:21.557Z,27.75
2018-08-07T07:42:50.815Z,27.76
2018-08-07T07:45:20.594Z,27.92
2018-08-07T07:47:49.721Z,28.23
2018-08-07T07:50:20.025Z,28.26
2018-08-07T07:52:49.209Z,28.41
2018-08-07T07:55:18.926Z,28.60
2018-08-07T07:57:48.102Z,28.71
2018-08-07T08:00:25.321Z,29.02
2018-08-07T08:02:54.591Z,29.22
2018-08-07T08:05:24.691Z,29.40
2018-08-07T08:07:54.202Z,29.62
2018-08-07T08:10:23.354Z,29.78
2018-08-07T08:12:52.517Z,29.84
2018-08-07T08:15:21.732Z,30.34
2018-08-07T08:17:50.870Z,30.76
2018-08-07T08:20:22.041Z,31.08
2018-08-07T08:22:55.484Z,31.10
2018-08-07T08:25:24.690Z,31.28
2018-08-07T08:27:53.853Z,31.44
2018-08-07T08:30:22.966Z,31.86
2018-08-07T08:32:52.158Z,32.24
2018-08-07T08:35:21.367Z,32.33
2018-08-07T08:37:50.611Z,32.41
2018-08-07T08:40:21.329Z,32.78
2018-08-07T08:42:50.542Z,32.75
2018-08-07T08:45:24.317Z,33.12
2018-08-07T08:47:54.847Z,33.15
2018-08-07T08:50:23.993Z,33.58
2018-08-07T08:52:53.167Z,33.75
2018-08-07T08:55:22.330Z,34.23
2018-08-07T08:57:53.104Z,34.13
2018-08-07T09:00:26.622Z,34.92
2018-08-07T09:03:01.917Z,34.13
2018-08-07T09:05:31.429Z,33.90
2018-08-07T09:08:00.762Z,34.33
2018-08-07T09:10:31.295Z,34.51
2018-08-07T09:13:02.129Z,34.85
2018-08-07T09:15:31.334Z,34.69
2018-08-07T09:18:00.519Z,35.41
2018-08-07T09:20:30.934Z,35.14
2018-08-07T09:23:00.370Z,35.81
2018-08-07T09:25:30.694Z,35.25
2018-08-07T09:27:59.813Z,35.45
2018-08-07T09:30:30.083Z,35.62
2018-08-07T09:32:59.832Z,35.89
2018-08-07T09:35:28.944Z,36.05
2018-08-07T09:37:58.841Z,36.33
2018-08-07T09:40:28.328Z,36.01
2018-08-07T09:42:57.833Z,36.47
2018-08-07T09:45:29.298Z,37.24
2018-08-07T09:47:59.024Z,37.00
2018-08-07T09:50:28.295Z,36.87
2018-08-07T09:53:03.487Z,37.64
2018-08-07T09:55:32.733Z,36.92
2018-08-07T09:58:03.248Z,36.70
2018-08-07T10:00:37.674Z,36.92
2018-08-07T10:03:12.836Z,36.82
2018-08-07T10:05:44.117Z,36.77
2018-08-07T10:08:13.814Z,36.44
2018-08-07T10:10:43.639Z,37.47
2018-08-07T10:13:13.263Z,37.28
2018-08-07T10:15:42.865Z,37.06
2018-08-07T10:18:12.139Z,37.12
2018-08-07T10:20:41.391Z,37.44
2018-08-07T10:23:10.566Z,37.91
2018-08-07T10:25:39.681Z,37.35
2018-08-07T10:28:08.859Z,37.71
2018-08-07T10:30:38.044Z,37.22
2018-08-07T10:33:07.194Z,37.21
2018-08-07T10:35:36.314Z,36.86
2018-08-07T10:38:05.606Z,37.19
2018-08-07T10:40:35.082Z,36.83
2018-08-07T10:43:04.270Z,36.94
2018-08-07T10:45:33.496Z,37.24
2018-08-07T10:48:02.975Z,37.36
2018-08-07T10:50:32.407Z,36.97
2018-08-07T10:53:03.718Z,37.17
2018-08-07T10:55:33.085Z,37.11
2018-08-07T10:58:02.394Z,37.25
2018-08-07T11:00:42.889Z,37.13
2018-08-07T11:03:12.065Z,36.46
2018-08-07T11:05:41.354Z,36.99
2018-08-07T11:08:10.556Z,36.93
2018-08-07T11:10:39.713Z,36.43
2018-08-07T11:13:10.932Z,36.42
2018-08-07T11:15:40.053Z,36.52
2018-08-07T11:18:09.308Z,36.72
2018-08-07T11:20:38.524Z,36.91
2018-08-07T11:23:07.770Z,36.78
2018-08-07T11:25:36.955Z,36.82
2018-08-07T11:28:11.367Z,36.32
2018-08-07T11:30:40.560Z,36.17
2018-08-07T11:33:09.797Z,36.79
2018-08-07T11:35:38.982Z,37.28
2018-08-07T11:38:14.928Z,37.63
2018-08-07T11:40:44.305Z,37.56
2018-08-07T11:43:14.718Z,37.56
2018-08-07T11:45:44.389Z,37.59
2018-08-07T11:48:14.014Z,37.56
2018-08-07T11:50:43.333Z,37.81
2018-08-07T11:53:13.309Z,38.20
2018-08-07T11:55:44.214Z,38.14
2018-08-07T11:58:14.315Z,38.12
2018-08-07T12:00:44.817Z,38.19
2018-08-07T12:03:14.493Z,38.35
2018-08-07T12:05:43.986Z,38.45
2018-08-07T12:08:13.347Z,38.80
2018-08-07T12:10:43.016Z,38.68
2018-08-07T12:13:12.266Z,38.70
2018-08-07T12:15:42.654Z,38.62
2018-08-07T12:18:13.746Z,38.45
2018-08-07T12:20:44.400Z,38.72
2018-08-07T12:23:14.321Z,38.64
2018-08-07T12:25:44.093Z,38.73
2018-08-07T12:28:15.553Z,38.62
2018-08-07T12:30:46.653Z,38.89
2018-08-07T12:33:16.536Z,38.98
2018-08-07T12:35:46.478Z,38.73
2018-08-07T12:38:16.189Z,38.71
2018-08-07T12:40:46.543Z,39.08
2018-08-07T12:43:15.757Z,39.23
2018-08-07T12:45:47.103Z,39.45
2018-08-07T12:48:17.339Z,39.29
2018-08-07T12:50:46.483Z,39.27
2018-08-07T12:53:16.175Z,39.10
2018-08-07T12:55:46.812Z,39.01
2018-08-07T12:58:16.743Z,38.72
2018-08-07T13:00:47.910Z,38.70
2018-08-07T13:03:17.335Z,38.81
2018-08-07T13:05:46.865Z,38.65
2018-08-07T13:08:16.685Z,38.78
2018-08-07T13:10:46.261Z,38.93
2018-08-07T13:13:15.603Z,39.09
2018-08-07T13:15:45.349Z,38.98
2018-08-07T13:18:14.537Z,39.18
2018-08-07T13:20:43.699Z,39.21
2018-08-07T13:23:13.209Z,39.55
2018-08-07T13:25:44.432Z,39.38
2018-08-07T13:28:13.635Z,39.50
2018-08-07T13:30:42.825Z,39.41
2018-08-07T13:33:12.057Z,39.13
2018-08-07T13:35:41.234Z,39.18
2018-08-07T13:38:10.459Z,39.24
2018-08-07T13:40:39.706Z,39.53
2018-08-07T13:43:08.861Z,39.32
2018-08-07T13:45:39.074Z,39.20
2018-08-07T13:48:08.273Z,39.34
2018-08-07T13:50:37.741Z,39.23
2018-08-07T13:53:06.965Z,39.66
2018-08-07T13:55:36.254Z,39.66
2018-08-07T13:58:38.693Z,39.56
2018-08-07T14:01:07.393Z,39.48
2018-08-07T14:03:35.884Z,39.78
2018-08-07T14:06:04.166Z,39.65
2018-08-07T14:08:32.540Z,39.57
2018-08-07T14:11:00.861Z,39.47
2018-08-07T14:13:30.246Z,39.43
2018-08-07T14:15:58.597Z,39.10
2018-08-07T14:18:26.934Z,39.53
2018-08-07T14:20:55.341Z,39.40
2018-08-07T14:23:23.744Z,39.38
2018-08-07T14:25:52.283Z,39.38
2018-08-07T14:28:21.049Z,39.41
2018-08-07T14:30:49.706Z,39.36
2018-08-07T14:33:18.382Z,39.36
2018-08-07T14:35:47.432Z,39.30
2018-08-07T14:38:16.091Z,39.38
2018-08-07T14:40:44.688Z,39.38
2018-08-07T14:43:12.965Z,39.36
2018-08-07T14:45:42.561Z,39.54
2018-08-07T14:48:10.850Z,39.66
2018-08-07T14:50:39.179Z,39.29
2018-08-07T14:53:07.857Z,39.10
2018-08-07T14:55:39.690Z,39.02
2018-08-07T14:58:08.118Z,38.94
2018-08-07T15:00:37.299Z,38.98
2018-08-07T15:03:07.474Z,39.07
2018-08-07T15:05:39.559Z,39.16
2018-08-07T15:08:08.121Z,39.13
2018-08-07T15:10:36.634Z,39.15
2018-08-07T15:13:05.358Z,39.06
2018-08-07T15:15:33.921Z,39.08
2018-08-07T15:18:02.204Z,38.85
2018-08-07T15:20:31.509Z,38.70
2018-08-07T15:22:59.817Z,38.64
2018-08-07T15:25:28.171Z,38.59
2018-08-07T15:27:56.409Z,38.52
2018-08-07T15:30:25.953Z,38.68
2018-08-07T15:32:54.649Z,38.72
2018-08-07T15:35:24.406Z,38.67
2018-08-07T15:37:52.705Z,38.60
2018-08-07T15:40:21.564Z,38.58
2018-08-07T15:42:50.444Z,38.64
2018-08-07T15:45:23.422Z,38.52
2018-08-07T15:47:56.149Z,38.62
2018-08-07T15:50:24.466Z,38.65
2018-08-07T15:52:54.117Z,38.34
2018-08-07T15:55:23.804Z,38.57
2018-08-07T15:57:53.132Z,38.60
2018-08-07T16:00:27.469Z,38.53
2018-08-07T16:02:55.863Z,38.61
2018-08-07T16:05:35.651Z,38.42
2018-08-07T16:08:04.388Z,38.36
2018-08-07T16:10:39.961Z,38.24
2018-08-07T16:13:08.522Z,38.32
2018-08-07T16:15:37.298Z,38.35
2018-08-07T16:18:06.307Z,38.26
2018-08-07T16:20:35.040Z,38.32
2018-08-07T16:23:03.655Z,38.17
2018-08-07T16:25:32.025Z,38.13
2018-08-07T16:28:01.450Z,37.86
2018-08-07T16:30:29.858Z,37.87
2018-08-07T16:32:58.161Z,37.85
2018-08-07T16:35:26.635Z,37.91
2018-08-07T16:37:55.965Z,37.91
2018-08-07T16:40:25.033Z,37.78
2018-08-07T16:42:54.177Z,37.72
2018-08-07T16:45:23.558Z,37.51
2018-08-07T16:47:52.098Z,37.33
2018-08-07T16:50:23.165Z,37.42
2018-08-07T16:52:53.031Z,37.20
2018-08-07T16:55:22.593Z,37.19
2018-08-07T16:57:51.017Z,37.13
2018-08-07T17:00:19.514Z,37.14
2018-08-07T17:02:48.130Z,37.05
2018-08-07T17:05:17.777Z,36.95
2018-08-07T17:07:47.254Z,36.91
2018-08-07T17:10:21.184Z,36.80
2018-08-07T17:12:50.365Z,36.73
2018-08-07T17:15:19.403Z,36.69
2018-08-07T17:17:49.681Z,36.51
2018-08-07T17:20:20.888Z,36.49
2018-08-07T17:22:52.143Z,36.36
2018-08-07T17:25:22.059Z,36.42
2018-08-07T17:27:51.335Z,36.31
2018-08-07T17:30:27.140Z,36.26
2018-08-07T17:32:55.579Z,36.18
2018-08-07T17:35:25.265Z,36.21
2018-08-07T17:37:54.855Z,36.22
2018-08-07T17:40:24.713Z,36.05
2018-08-07T17:42:53.085Z,36.02
2018-08-07T17:45:21.625Z,35.99
2018-08-07T17:47:50.069Z,35.81
2018-08-07T17:50:23.690Z,35.86
2018-08-07T17:52:52.710Z,35.76
2018-08-07T17:55:21.112Z,35.76
2018-08-07T17:57:50.352Z,35.69
2018-08-07T18:00:20.658Z,35.59
2018-08-07T18:02:49.214Z,35.57
2018-08-07T18:05:18.721Z,35.42
2018-08-07T18:07:49.006Z,35.42
2018-08-07T18:10:18.701Z,35.34
2018-08-07T18:12:47.326Z,35.25
2018-08-07T18:15:17.166Z,35.30
2018-08-07T18:17:46.218Z,35.31
2018-08-07T18:20:17.589Z,35.11
2018-08-07T18:22:46.164Z,35.15
2018-08-07T18:25:16.699Z,35.06
2018-08-07T18:27:45.477Z,34.78
2018-08-07T18:30:16.018Z,34.59
2018-08-07T18:32:45.359Z,34.32
2018-08-07T18:35:18.866Z,34.32
2018-08-07T18:37:47.777Z,33.94
2018-08-07T18:40:16.333Z,33.89
2018-08-07T18:42:45.171Z,34.00
2018-08-07T18:45:14.510Z,33.91
2018-08-07T18:47:49.578Z,34.07
2018-08-07T18:50:24.739Z,33.81
2018-08-07T18:52:53.373Z,33.54
2018-08-07T18:55:22.027Z,33.36
2018-08-07T18:57:51.168Z,33.37
2018-08-07T19:00:22.819Z,33.51
2018-08-07T19:02:51.317Z,33.37
2018-08-07T19:05:20.917Z,33.32
2018-08-07T19:07:49.538Z,33.44
2018-08-07T19:10:19.299Z,33.49
2018-08-07T19:12:48.624Z,33.47
2018-08-07T19:15:18.247Z,33.36
2018-08-07T19:17:47.033Z,33.37
2018-08-07T19:20:17.468Z,33.31
2018-08-07T19:22:46.202Z,32.99
2018-08-07T19:25:14.713Z,32.75
2018-08-07T19:27:43.223Z,32.34
2018-08-07T19:30:13.346Z,32.54
2018-08-07T19:32:41.692Z,32.60
2018-08-07T19:35:11.102Z,32.26
2018-08-07T19:37:40.386Z,32.36
2018-08-07T19:40:11.866Z,32.50
2018-08-07T19:42:40.105Z,32.46
2018-08-07T19:45:09.857Z,32.37
2018-08-07T19:47:38.145Z,32.31
2018-08-07T19:50:07.693Z,32.36
2018-08-07T19:52:36.765Z,32.21
2018-08-07T19:55:05.862Z,32.05
2018-08-07T19:57:34.241Z,32.13
2018-08-07T20:00:02.631Z,31.97
2018-08-07T20:02:30.898Z,32.18
2018-08-07T20:04:59.234Z,31.81
2018-08-07T20:07:27.461Z,31.81
2018-08-07T20:09:55.730Z,31.41
2018-08-07T20:12:24.009Z,31.13
2018-08-07T20:14:52.297Z,31.56
2018-08-07T20:17:20.634Z,31.30
2018-08-07T20:19:48.921Z,31.41
2018-08-07T20:22:17.806Z,31.25
2018-08-07T20:24:46.266Z,31.11
2018-08-07T20:27:15.113Z,30.97
2018-08-07T20:29:43.416Z,30.93
2018-08-07T20:32:11.737Z,30.90
2018-08-07T20:34:40.042Z,30.96
2018-08-07T20:37:08.554Z,30.83
2018-08-07T20:39:37.010Z,30.64
2018-08-07T20:42:05.314Z,30.79
2018-08-07T20:44:33.649Z,30.58
2018-08-07T20:47:01.915Z,30.85
2018-08-07T20:49:30.193Z,30.72
2018-08-07T20:51:58.430Z,30.22
2018-08-07T20:54:26.677Z,30.38
2018-08-07T20:56:55.217Z,30.43
2018-08-07T20:59:23.465Z,30.51
2018-08-07T21:01:51.721Z,30.32
2018-08-07T21:04:19.961Z,30.32
2018-08-07T21:06:48.273Z,30.14
2018-08-07T21:09:16.617Z,29.94
2018-08-07T21:11:45.046Z,29.89
2018-08-07T21:14:13.369Z,30.01
2018-08-07T21:16:41.709Z,29.92
2018-08-07T21:19:09.971Z,29.77
2018-08-07T21:21:38.246Z,29.68
2018-08-07T21:24:06.492Z,29.61
2018-08-07T21:26:35.033Z,29.50
2018-08-07T21:29:03.301Z,29.74
2018-08-07T21:31:31.620Z,29.67
2018-08-07T21:33:59.870Z,29.71
2018-08-07T21:36:28.119Z,29.82
2018-08-07T21:38:56.350Z,30.05
2018-08-07T21:41:24.631Z,30.07
2018-08-07T21:43:52.827Z,29.97
2018-08-07T21:46:21.065Z,29.69
2018-08-07T21:48:49.317Z,29.61
2018-08-07T21:51:17.549Z,29.38
2018-08-07T21:53:45.855Z,29.25
2018-08-07T21:56:14.145Z,28.98
2018-08-07T21:58:42.488Z,29.20
2018-08-07T22:01:10.874Z,29.12
2018-08-07T22:03:39.148Z,29.13
2018-08-07T22:06:07.704Z,29.24
2018-08-07T22:08:35.941Z,29.29
2018-08-07T22:11:04.226Z,28.99
2018-08-07T22:13:32.486Z,29.33
2018-08-07T22:16:00.738Z,29.23
2018-08-07T22:18:29.025Z,29.30
2018-08-07T22:20:57.308Z,29.14
2018-08-07T22:23:25.598Z,29.27
2018-08-07T22:25:53.833Z,29.23
2018-08-07T22:28:22.108Z,29.03
2018-08-07T22:30:50.361Z,29.32
2018-08-07T22:33:18.733Z,29.39
2018-08-07T22:35:47.017Z,29.12
2018-08-07T22:38:15.305Z,29.12
2018-08-07T22:40:43.590Z,29.06
2018-08-07T22:43:11.958Z,29.20
2018-08-07T22:45:40.169Z,28.98
2018-08-07T22:48:09.200Z,29.03
2018-08-07T22:50:37.501Z,28.99
2018-08-07T22:53:05.757Z,29.17
2018-08-07T22:55:34.033Z,28.94
2018-08-07T22:58:02.253Z,29.09
2018-08-07T23:00:30.518Z,28.95
2018-08-07T23:02:58.805Z,29.03
2018-08-07T23:05:29.699Z,28.85
2018-08-07T23:07:58.175Z,29.04
2018-08-07T23:10:26.564Z,28.96
2018-08-07T23:12:54.821Z,28.94
2018-08-07T23:15:23.434Z,28.83
2018-08-07T23:17:51.681Z,28.87
2018-08-07T23:20:22.269Z,28.74
2018-08-07T23:22:53.813Z,28.74
2018-08-07T23:25:22.125Z,28.80
2018-08-07T23:27:50.386Z,28.82
2018-08-07T23:30:19.597Z,28.84
2018-08-07T23:32:47.876Z,28.80
2018-08-07T23:35:16.610Z,28.68
2018-08-07T23:37:44.930Z,28.66
2018-08-07T23:40:14.197Z,28.62
2018-08-07T23:42:43.236Z,28.48
2018-08-07T23:45:12.743Z,28.50
2018-08-07T23:47:41.007Z,28.60
2018-08-07T23:50:09.945Z,28.35
2018-08-07T23:52:38.304Z,28.41
2018-08-07T23:55:07.871Z,28.46
2018-08-07T23:57:36.626Z,28.40
